createdAt,value
2023-02-16T00:05:39.004Z,6.25
2023-02-16T00:11:18.962Z,6.07
2023-02-16T00:16:42.963Z,6.10
2023-02-16T00:22:09.972Z,6.82
2023-02-16T00:27:36.962Z,6.32
2023-02-16T00:33:01.968Z,6.70
2023-02-16T00:38:30.005Z,6.70
2023-02-16T00:44:04.004Z,7.13
2023-02-16T00:49:32.003Z,7.22
2023-02-16T00:54:55.982Z,7.20
2023-02-16T01:00:29.013Z,7.43
2023-02-16T01:05:52.998Z,7.55
2023-02-16T01:11:18.982Z,8.18
2023-02-16T01:16:53.015Z,7.18
2023-02-16T01:22:20.099Z,7.88
2023-02-16T01:27:54.091Z,8.50
2023-02-16T01:33:21.995Z,9.10
2023-02-16T01:38:46.992Z,9.43
2023-02-16T01:44:22.025Z,8.85
2023-02-16T01:49:50.019Z,9.38
2023-02-16T01:55:22.253Z,9.45
2023-02-16T02:01:17.040Z,9.43
2023-02-16T02:06:50.028Z,10.10
2023-02-16T02:12:23.028Z,10.07
2023-02-16T02:17:47.030Z,10.13
2023-02-16T02:23:43.177Z,9.80
2023-02-16T02:29:23.256Z,9.43
2023-02-16T02:35:04.062Z,9.73
2023-02-16T02:40:38.037Z,9.32
2023-02-16T02:46:10.027Z,8.75
2023-02-16T02:51:40.039Z,8.50
2023-02-16T02:57:21.029Z,8.63
2023-02-16T03:02:52.043Z,8.60
2023-02-16T03:08:24.097Z,8.50
2023-02-16T03:13:52.081Z,9.20
2023-02-16T03:19:35.025Z,8.77
2023-02-16T03:25:13.039Z,9.90
2023-02-16T03:30:39.167Z,9.60
2023-02-16T03:36:07.079Z,10.75
2023-02-16T03:41:38.052Z,10.73
2023-02-16T03:47:03.061Z,10.43
2023-02-16T03:52:30.083Z,11.43
2023-02-16T03:57:55.083Z,11.00
2023-02-16T04:03:20.065Z,11.60
2023-02-16T04:08:49.152Z,11.43
2023-02-16T04:14:13.058Z,11.75
2023-02-16T04:19:38.084Z,10.93
2023-02-16T04:25:05.103Z,11.57
2023-02-16T04:30:32.150Z,11.30
2023-02-16T04:35:57.102Z,10.82
2023-02-16T04:41:25.072Z,11.05
2023-02-16T04:46:49.056Z,11.88
2023-02-16T04:52:15.080Z,11.65
2023-02-16T04:57:42.100Z,11.70
2023-02-16T05:03:07.060Z,11.85
2023-02-16T05:08:31.080Z,12.38
2023-02-16T05:14:11.146Z,12.18
2023-02-16T05:19:35.167Z,11.18
2023-02-16T05:25:00.142Z,11.32
2023-02-16T05:30:29.158Z,10.80
2023-02-16T05:35:54.128Z,11.60
2023-02-16T05:41:30.091Z,11.27
2023-02-16T05:46:58.343Z,11.05
2023-02-16T05:52:23.464Z,11.40
2023-02-16T05:57:48.121Z,11.73
2023-02-16T06:03:15.120Z,11.45
2023-02-16T06:08:41.110Z,11.65
2023-02-16T06:14:06.117Z,12.23
2023-02-16T06:19:34.274Z,11.20
2023-02-16T06:24:58.186Z,11.68
2023-02-16T06:30:24.261Z,11.25
2023-02-16T06:35:51.167Z,11.50
2023-02-16T06:41:38.122Z,12.27
2023-02-16T06:47:03.120Z,10.77
2023-02-16T06:52:31.357Z,11.25
2023-02-16T06:57:56.164Z,11.43
2023-02-16T07:03:21.244Z,11.70
2023-02-16T07:08:49.155Z,11.35
2023-02-16T07:14:13.162Z,11.48
2023-02-16T07:19:39.132Z,11.00
2023-02-16T07:25:07.168Z,10.63
2023-02-16T07:30:33.240Z,11.02
2023-02-16T07:35:58.162Z,9.55
2023-02-16T07:41:26.383Z,10.48
2023-02-16T07:46:58.163Z,10.68
2023-02-16T07:52:24.125Z,11.02
2023-02-16T07:57:51.133Z,11.68
2023-02-16T08:03:16.380Z,9.82
2023-02-16T08:08:40.173Z,10.60
2023-02-16T08:14:08.169Z,10.02
2023-02-16T08:19:32.151Z,9.35
2023-02-16T08:24:58.129Z,8.57
2023-02-16T08:30:27.195Z,9.00
2023-02-16T08:35:52.177Z,8.15
2023-02-16T08:41:17.252Z,8.45
2023-02-16T08:46:47.181Z,8.23
2023-02-16T08:52:13.227Z,7.45
2023-02-16T08:57:38.178Z,7.82
2023-02-16T09:03:05.172Z,7.90
2023-02-16T09:08:31.183Z,7.97
2023-02-16T09:13:56.174Z,7.10
2023-02-16T09:19:25.276Z,9.18
2023-02-16T09:24:49.207Z,9.70
2023-02-16T09:30:16.220Z,8.73
2023-02-16T09:35:44.190Z,8.80
2023-02-16T09:41:16.205Z,8.40
2023-02-16T09:46:43.191Z,8.07
2023-02-16T09:52:21.364Z,7.70
2023-02-16T09:58:03.368Z,7.70
2023-02-16T10:03:45.359Z,6.80
2023-02-16T10:09:16.168Z,6.72
2023-02-16T10:14:48.205Z,5.97
2023-02-16T10:20:17.342Z,6.32
2023-02-16T10:25:53.194Z,6.30
2023-02-16T10:31:19.267Z,6.30
2023-02-16T10:37:00.232Z,6.25
2023-02-16T10:42:37.372Z,6.80
2023-02-16T10:48:02.197Z,6.50
2023-02-16T10:53:40.224Z,6.10
2023-02-16T10:59:10.222Z,6.05
2023-02-16T11:04:49.275Z,5.93
2023-02-16T11:10:31.230Z,5.88
2023-02-16T11:15:58.305Z,6.00
2023-02-16T11:21:24.213Z,5.43
2023-02-16T11:26:48.239Z,5.40
2023-02-16T11:32:21.224Z,5.35
2023-02-16T11:37:48.358Z,5.30
2023-02-16T11:43:20.269Z,5.20
2023-02-16T11:48:48.273Z,5.38
2023-02-16T11:54:17.291Z,5.32
2023-02-16T11:59:45.270Z,5.47
2023-02-16T12:05:38.271Z,5.20
2023-02-16T12:11:32.258Z,4.90
2023-02-16T12:17:05.397Z,5.80
2023-02-16T12:22:42.254Z,5.38
2023-02-16T12:28:18.256Z,5.22
2023-02-16T12:33:54.261Z,5.80
2023-02-16T12:39:35.244Z,5.13
2023-02-16T12:45:04.253Z,5.27
2023-02-16T12:50:36.403Z,5.60
2023-02-16T12:56:08.280Z,5.30
2023-02-16T13:01:37.276Z,5.28
2023-02-16T13:07:10.369Z,5.47
2023-02-16T13:12:45.325Z,5.03
2023-02-16T13:18:15.524Z,5.60
2023-02-16T13:23:53.326Z,5.22
2023-02-16T13:29:49.280Z,5.70
2023-02-16T13:35:29.303Z,6.38
2023-02-16T13:41:19.292Z,6.53
2023-02-16T13:46:49.328Z,6.70
2023-02-16T13:52:17.328Z,6.50
2023-02-16T13:58:17.428Z,7.20
2023-02-16T14:03:48.326Z,6.88
2023-02-16T14:10:01.355Z,7.18
2023-02-16T14:15:29.365Z,7.10
2023-02-16T14:20:56.311Z,6.93
2023-02-16T14:26:22.311Z,6.50
2023-02-16T14:31:55.386Z,6.53
2023-02-16T14:37:37.360Z,6.05
2023-02-16T14:43:11.317Z,6.43
2023-02-16T14:48:56.307Z,5.80
2023-02-16T14:54:57.324Z,6.07
2023-02-16T15:00:38.354Z,4.40
2023-02-16T15:06:12.331Z,3.90
2023-02-16T15:12:07.344Z,2.72
2023-02-16T15:17:43.464Z,2.67
2023-02-16T15:23:10.387Z,2.90
2023-02-16T15:28:40.352Z,2.70
2023-02-16T15:34:07.345Z,2.90
2023-02-16T15:39:53.520Z,2.67
2023-02-16T15:45:44.360Z,2.40
2023-02-16T15:51:20.378Z,2.70
2023-02-16T15:56:53.366Z,2.78
2023-02-16T16:02:25.538Z,2.70
2023-02-16T16:07:52.452Z,3.33
2023-02-16T16:13:24.362Z,2.97
2023-02-16T16:19:00.398Z,3.10
2023-02-16T16:24:40.634Z,3.30
2023-02-16T16:30:04.395Z,3.28
2023-02-16T16:35:44.412Z,3.40
2023-02-16T16:41:11.413Z,3.88
2023-02-16T16:46:39.430Z,3.90
2023-02-16T16:52:10.380Z,4.50
2023-02-16T16:57:36.385Z,4.77
2023-02-16T17:03:01.464Z,4.90
2023-02-16T17:08:29.440Z,5.00
2023-02-16T17:13:54.409Z,5.30
2023-02-16T17:19:21.424Z,4.82
2023-02-16T17:24:48.449Z,5.10
2023-02-16T17:30:15.606Z,4.85
2023-02-16T17:35:40.467Z,5.03
2023-02-16T17:41:08.529Z,5.35
2023-02-16T17:46:40.440Z,5.03
2023-02-16T17:52:05.404Z,5.15
2023-02-16T17:57:33.410Z,5.18
2023-02-16T18:02:58.445Z,5.55
2023-02-16T18:08:23.456Z,5.30
2023-02-16T18:13:51.464Z,5.80
2023-02-16T18:19:16.433Z,5.88
2023-02-16T18:24:41.432Z,6.28
2023-02-16T18:30:02.488Z,6.50
2023-02-16T18:35:27.431Z,6.37
2023-02-16T18:40:53.508Z,7.07
2023-02-16T18:46:28.525Z,6.80
2023-02-16T18:51:53.494Z,7.15
2023-02-16T18:57:17.470Z,7.38
2023-02-16T19:02:47.447Z,8.10
2023-02-16T19:08:11.458Z,8.43
2023-02-16T19:13:36.480Z,7.57
2023-02-16T19:19:04.495Z,8.05
2023-02-16T19:24:29.508Z,8.82
2023-02-16T19:29:53.604Z,8.88
2023-02-16T19:35:21.580Z,8.68
2023-02-16T19:40:45.491Z,8.70
2023-02-16T19:46:18.650Z,9.50
2023-02-16T19:51:46.482Z,9.40
2023-02-16T19:57:11.518Z,9.23
2023-02-16T20:02:37.562Z,9.73
2023-02-16T20:08:04.488Z,9.55
2023-02-16T20:13:29.569Z,9.63
2023-02-16T20:18:54.519Z,9.05
2023-02-16T20:24:23.506Z,9.18
2023-02-16T20:29:47.492Z,9.02
2023-02-16T20:35:14.869Z,9.57
2023-02-16T20:40:45.936Z,9.18
2023-02-16T20:46:19.557Z,9.60
2023-02-16T20:51:45.525Z,9.52
2023-02-16T20:57:26.006Z,9.73
2023-02-16T21:02:52.537Z,9.60
2023-02-16T21:08:16.521Z,10.18
2023-02-16T21:13:44.569Z,9.55
2023-02-16T21:19:21.204Z,9.68
2023-02-16T21:24:48.574Z,9.95
2023-02-16T21:30:15.588Z,9.60
2023-02-16T21:35:41.557Z,9.30
2023-02-16T21:41:18.543Z,10.05
2023-02-16T21:46:54.554Z,9.18
2023-02-16T21:52:19.527Z,9.65
2023-02-16T21:57:43.522Z,9.23
2023-02-16T22:03:11.555Z,8.95
2023-02-16T22:08:37.572Z,8.65
2023-02-16T22:14:04.769Z,8.88
2023-02-16T22:19:34.586Z,8.43
2023-02-16T22:24:59.551Z,8.68
2023-02-16T22:30:28.373Z,8.02
2023-02-16T22:35:56.626Z,8.15
2023-02-16T22:41:24.127Z,8.15
2023-02-16T22:46:56.940Z,8.63
2023-02-16T22:52:26.558Z,8.20
2023-02-16T22:58:03.581Z,8.82
2023-02-16T23:03:29.576Z,9.15
2023-02-16T23:08:56.593Z,8.52
2023-02-16T23:14:26.952Z,7.90
2023-02-16T23:19:54.582Z,8.18
2023-02-16T23:25:34.643Z,8.02
2023-02-16T23:31:00.705Z,7.47
2023-02-16T23:36:25.558Z,7.65
2023-02-16T23:41:52.688Z,7.28
2023-02-16T23:47:17.816Z,7.75
2023-02-16T23:52:41.589Z,7.63
2023-02-16T23:58:09.597Z,7.32
